sensor_id;sensor_type;location;lat;lon;timestamp;pressure;altitude;pressure_sealevel;temperature;humidity
50650;BME280;36621;60.058;30.346;2023-01-28T00:00:32;102173.97;;;-0.46;63.98
50650;BME280;36621;60.058;30.346;2023-01-28T00:08:05;102202.34;;;-0.36;64.67
50650;BME280;36621;60.058;30.346;2023-01-28T00:15:37;102201.94;;;-0.57;64.68
50650;BME280;36621;60.058;30.346;2023-01-28T00:23:09;102202.59;;;-0.63;64.92
50650;BME280;36621;60.058;30.346;2023-01-28T00:30:41;102180.13;;;-0.62;64.47
50650;BME280;36621;60.058;30.346;2023-01-28T00:38:14;102156.19;;;-0.56;64.21
50650;BME280;36621;60.058;30.346;2023-01-28T00:45:46;102156.50;;;-0.59;63.57
50650;BME280;36621;60.058;30.346;2023-01-28T00:53:18;102143.19;;;-0.77;63.93
50650;BME280;36621;60.058;30.346;2023-01-28T01:00:50;102145.91;;;-0.68;64.46
50650;BME280;36621;60.058;30.346;2023-01-28T01:08:23;102131.66;;;-0.69;63.90
50650;BME280;36621;60.058;30.346;2023-01-28T01:16:07;102116.53;;;-0.78;64.00
50650;BME280;36621;60.058;30.346;2023-01-28T01:23:40;102158.31;;;-0.67;64.17
50650;BME280;36621;60.058;30.346;2023-01-28T01:31:14;102150.63;;;-0.71;63.90
50650;BME280;36621;60.058;30.346;2023-01-28T01:38:47;102131.38;;;-1.00;64.37
50650;BME280;36621;60.058;30.346;2023-01-28T01:46:22;102127.34;;;-1.05;64.39
50650;BME280;36621;60.058;30.346;2023-01-28T01:53:57;102105.06;;;-1.05;63.95
50650;BME280;36621;60.058;30.346;2023-01-28T02:01:30;102080.53;;;-1.27;64.86
50650;BME280;36621;60.058;30.346;2023-01-28T02:09:19;102051.34;;;-1.38;65.32
50650;BME280;36621;60.058;30.346;2023-01-28T02:16:54;102086.34;;;-1.40;64.16
50650;BME280;36621;60.058;30.346;2023-01-28T02:24:47;101960.66;;;-2.02;64.15
50650;BME280;36621;60.058;30.346;2023-01-28T02:32:28;102080.97;;;-1.40;64.31
50650;BME280;36621;60.058;30.346;2023-01-28T02:40:06;102087.09;;;-1.21;64.29
50650;BME280;36621;60.058;30.346;2023-01-28T02:47:41;102079.78;;;-1.45;64.17
50650;BME280;36621;60.058;30.346;2023-01-28T02:55:33;102064.34;;;-1.51;64.52
50650;BME280;36621;60.058;30.346;2023-01-28T03:03:15;102079.81;;;-1.37;64.39
50650;BME280;36621;60.058;30.346;2023-01-28T03:10:49;102083.03;;;-1.60;64.59
50650;BME280;36621;60.058;30.346;2023-01-28T03:18:44;102084.41;;;-1.55;64.63
50650;BME280;36621;60.058;30.346;2023-01-28T03:26:42;102058.06;;;-1.68;64.36
50650;BME280;36621;60.058;30.346;2023-01-28T03:34:35;102055.09;;;-1.57;64.40
50650;BME280;36621;60.058;30.346;2023-01-28T03:42:25;102057.69;;;-1.39;63.62
50650;BME280;36621;60.058;30.346;2023-01-28T03:50:15;102044.56;;;-1.59;63.46
50650;BME280;36621;60.058;30.346;2023-01-28T03:57:57;102043.59;;;-1.49;63.68
50650;BME280;36621;60.058;30.346;2023-01-28T04:05:30;102038.72;;;-1.54;64.04
50650;BME280;36621;60.058;30.346;2023-01-28T04:13:04;102018.38;;;-1.73;63.55
50650;BME280;36621;60.058;30.346;2023-01-28T04:20:37;102029.25;;;-1.66;64.11
50650;BME280;36621;60.058;30.346;2023-01-28T04:28:09;102013.91;;;-1.56;63.28
50650;BME280;36621;60.058;30.346;2023-01-28T04:35:42;102009.75;;;-1.59;63.22
50650;BME280;36621;60.058;30.346;2023-01-28T04:43:26;102009.81;;;-1.77;63.84
50650;BME280;36621;60.058;30.346;2023-01-28T04:51:17;101975.75;;;-1.93;63.68
50650;BME280;36621;60.058;30.346;2023-01-28T04:59:28;101980.59;;;-1.96;63.50
50650;BME280;36621;60.058;30.346;2023-01-28T05:07:01;101970.22;;;-1.99;63.27
50650;BME280;36621;60.058;30.346;2023-01-28T05:14:37;101991.16;;;-1.95;63.49
50650;BME280;36621;60.058;30.346;2023-01-28T05:22:12;101987.16;;;-1.90;63.48
50650;BME280;36621;60.058;30.346;2023-01-28T05:29:50;101968.81;;;-1.77;63.62
50650;BME280;36621;60.058;30.346;2023-01-28T05:37:23;101959.19;;;-1.62;63.32
50650;BME280;36621;60.058;30.346;2023-01-28T05:44:59;101945.00;;;-1.88;62.83
50650;BME280;36621;60.058;30.346;2023-01-28T05:52:58;101965.09;;;-1.84;63.96
50650;BME280;36621;60.058;30.346;2023-01-28T06:00:36;101784.50;;;-2.84;63.13
50650;BME280;36621;60.058;30.346;2023-01-28T06:08:11;101934.72;;;-2.01;63.81
50650;BME280;36621;60.058;30.346;2023-01-28T06:15:43;101955.31;;;-2.02;63.80
50650;BME280;36621;60.058;30.346;2023-01-28T06:23:28;101966.09;;;-1.85;64.24
50650;BME280;36621;60.058;30.346;2023-01-28T06:31:00;101962.47;;;-1.76;63.10
50650;BME280;36621;60.058;30.346;2023-01-28T06:38:32;101948.97;;;-1.93;63.75
50650;BME280;36621;60.058;30.346;2023-01-28T06:46:05;101942.91;;;-2.03;63.17
50650;BME280;36621;60.058;30.346;2023-01-28T06:53:40;101938.94;;;-1.99;63.42
50650;BME280;36621;60.058;30.346;2023-01-28T07:01:19;101956.75;;;-1.81;63.13
50650;BME280;36621;60.058;30.346;2023-01-28T07:08:51;101933.19;;;-1.69;62.58
50650;BME280;36621;60.058;30.346;2023-01-28T07:16:23;101922.78;;;-1.72;62.85
50650;BME280;36621;60.058;30.346;2023-01-28T07:23:56;101911.44;;;-1.66;62.07
50650;BME280;36621;60.058;30.346;2023-01-28T07:31:28;101900.09;;;-1.52;61.81
50650;BME280;36621;60.058;30.346;2023-01-28T07:39:01;101853.22;;;-2.07;61.87
50650;BME280;36621;60.058;30.346;2023-01-28T07:46:33;101893.13;;;-1.87;62.24
50650;BME280;36621;60.058;30.346;2023-01-28T07:54:05;101853.56;;;-2.10;62.37
50650;BME280;36621;60.058;30.346;2023-01-28T08:01:37;101892.16;;;-1.78;62.91
50650;BME280;36621;60.058;30.346;2023-01-28T08:09:10;101875.28;;;-1.62;62.26
50650;BME280;36621;60.058;30.346;2023-01-28T08:16:42;101853.19;;;-1.72;62.39
50650;BME280;36621;60.058;30.346;2023-01-28T08:24:14;101859.53;;;-1.82;62.50
50650;BME280;36621;60.058;30.346;2023-01-28T08:31:46;101853.38;;;-1.66;62.47
50650;BME280;36621;60.058;30.346;2023-01-28T08:39:21;101794.56;;;-1.84;62.42
50650;BME280;36621;60.058;30.346;2023-01-28T08:46:52;101829.09;;;-1.48;62.42
50650;BME280;36621;60.058;30.346;2023-01-28T08:54:25;101812.53;;;-1.43;61.75
50650;BME280;36621;60.058;30.346;2023-01-28T09:01:57;101805.50;;;-1.52;61.93
50650;BME280;36621;60.058;30.346;2023-01-28T09:09:30;101633.75;;;-2.48;61.58
50650;BME280;36621;60.058;30.346;2023-01-28T09:17:03;101775.03;;;-1.35;61.19
50650;BME280;36621;60.058;30.346;2023-01-28T09:24:36;101779.03;;;-1.14;60.70
50650;BME280;36621;60.058;30.346;2023-01-28T09:32:11;101741.88;;;-1.26;60.47
50650;BME280;36621;60.058;30.346;2023-01-28T09:39:43;101750.53;;;-0.99;60.69
50650;BME280;36621;60.058;30.346;2023-01-28T09:47:20;101748.84;;;-0.92;60.34
50650;BME280;36621;60.058;30.346;2023-01-28T09:54:58;101707.28;;;-0.96;60.80
50650;BME280;36621;60.058;30.346;2023-01-28T10:02:44;101727.72;;;-0.86;60.87
50650;BME280;36621;60.058;30.346;2023-01-28T10:10:26;101713.63;;;-0.89;60.60
50650;BME280;36621;60.058;30.346;2023-01-28T10:18:03;101695.88;;;-0.90;60.81
50650;BME280;36621;60.058;30.346;2023-01-28T10:25:40;101660.25;;;-1.07;61.02
50650;BME280;36621;60.058;30.346;2023-01-28T10:33:21;101668.44;;;-1.00;61.60
50650;BME280;36621;60.058;30.346;2023-01-28T10:40:59;101662.69;;;-0.89;60.48
50650;BME280;36621;60.058;30.346;2023-01-28T10:48:32;101647.38;;;-1.11;60.24
50650;BME280;36621;60.058;30.346;2023-01-28T10:56:08;101648.03;;;-1.09;60.25
50650;BME280;36621;60.058;30.346;2023-01-28T11:03:53;101628.38;;;-1.01;60.18
50650;BME280;36621;60.058;30.346;2023-01-28T11:11:27;101623.44;;;-0.81;59.98
50650;BME280;36621;60.058;30.346;2023-01-28T11:19:03;101609.41;;;-0.92;59.49
50650;BME280;36621;60.058;30.346;2023-01-28T11:26:43;101537.25;;;-1.33;59.37
50650;BME280;36621;60.058;30.346;2023-01-28T11:34:18;101542.50;;;-1.08;59.32
50650;BME280;36621;60.058;30.346;2023-01-28T11:41:51;101548.16;;;-1.03;59.03
50650;BME280;36621;60.058;30.346;2023-01-28T11:49:34;101544.94;;;-0.98;59.58
50650;BME280;36621;60.058;30.346;2023-01-28T11:57:22;101537.16;;;-0.85;59.81
50650;BME280;36621;60.058;30.346;2023-01-28T12:05:08;101514.63;;;-0.76;59.87
50650;BME280;36621;60.058;30.346;2023-01-28T12:12:58;101486.44;;;-0.95;60.54
50650;BME280;36621;60.058;30.346;2023-01-28T12:20:37;101487.19;;;-0.78;59.93
50650;BME280;36621;60.058;30.346;2023-01-28T12:28:19;101455.81;;;-0.77;59.74
50650;BME280;36621;60.058;30.346;2023-01-28T12:36:02;101474.34;;;-0.67;59.09
50650;BME280;36621;60.058;30.346;2023-01-28T12:43:49;101439.50;;;-0.91;59.39
50650;BME280;36621;60.058;30.346;2023-01-28T12:51:26;101437.84;;;-0.92;60.20
50650;BME280;36621;60.058;30.346;2023-01-28T12:59:05;101402.41;;;-1.02;59.74
50650;BME280;36621;60.058;30.346;2023-01-28T13:06:46;101400.81;;;-1.11;59.39
50650;BME280;36621;60.058;30.346;2023-01-28T13:14:23;101365.00;;;-1.42;59.69
50650;BME280;36621;60.058;30.346;2023-01-28T13:21:56;101354.91;;;-1.31;59.69
50650;BME280;36621;60.058;30.346;2023-01-28T13:29:30;101349.00;;;-1.27;59.84
50650;BME280;36621;60.058;30.346;2023-01-28T13:37:14;101258.81;;;-1.81;59.15
50650;BME280;36621;60.058;30.346;2023-01-28T13:44:49;101303.22;;;-1.40;59.26
50650;BME280;36621;60.058;30.346;2023-01-28T13:52:25;101335.66;;;-1.35;59.69
50650;BME280;36621;60.058;30.346;2023-01-28T14:00:06;101328.34;;;-1.41;59.94
50650;BME280;36621;60.058;30.346;2023-01-28T14:15:53;101155.72;;;-2.46;58.93
50650;BME280;36621;60.058;30.346;2023-01-28T14:23:29;101309.78;;;-1.43;59.49
50650;BME280;36621;60.058;30.346;2023-01-28T14:31:07;101267.28;;;-1.69;59.36
50650;BME280;36621;60.058;30.346;2023-01-28T14:38:43;101312.31;;;-1.49;59.56
50650;BME280;36621;60.058;30.346;2023-01-28T14:46:28;101296.47;;;-1.36;59.74
50650;BME280;36621;60.058;30.346;2023-01-28T15:02:16;101277.28;;;-1.63;60.20
50650;BME280;36621;60.058;30.346;2023-01-28T15:09:59;101266.63;;;-1.71;59.71
50650;BME280;36621;60.058;30.346;2023-01-28T15:17:31;101280.41;;;-1.59;58.51
50650;BME280;36621;60.058;30.346;2023-01-28T15:25:04;101274.19;;;-1.51;59.01
50650;BME280;36621;60.058;30.346;2023-01-28T15:32:37;101261.84;;;-1.61;59.88
50650;BME280;36621;60.058;30.346;2023-01-28T15:40:17;101259.47;;;-1.55;60.14
50650;BME280;36621;60.058;30.346;2023-01-28T15:47:53;101248.16;;;-1.43;58.97
50650;BME280;36621;60.058;30.346;2023-01-28T15:55:37;101232.28;;;-1.44;59.25
50650;BME280;36621;60.058;30.346;2023-01-28T16:03:17;101216.84;;;-1.42;59.69
50650;BME280;36621;60.058;30.346;2023-01-28T16:10:51;101153.19;;;-1.93;59.37
50650;BME280;36621;60.058;30.346;2023-01-28T16:18:37;101195.19;;;-1.55;59.47
50650;BME280;36621;60.058;30.346;2023-01-28T16:26:20;101167.69;;;-1.49;59.40
50650;BME280;36621;60.058;30.346;2023-01-28T16:33:55;101132.00;;;-1.65;59.56
50650;BME280;36621;60.058;30.346;2023-01-28T16:41:28;101143.59;;;-1.49;59.97
50650;BME280;36621;60.058;30.346;2023-01-28T16:49:05;101132.88;;;-1.49;59.52
50650;BME280;36621;60.058;30.346;2023-01-28T16:56:37;101071.25;;;-1.79;59.33
50650;BME280;36621;60.058;30.346;2023-01-28T17:04:10;101093.69;;;-1.50;60.23
50650;BME280;36621;60.058;30.346;2023-01-28T17:11:42;101071.53;;;-1.59;59.87
50650;BME280;36621;60.058;30.346;2023-01-28T17:19:15;101045.50;;;-1.65;60.31
50650;BME280;36621;60.058;30.346;2023-01-28T17:26:51;100941.09;;;-2.10;60.31
50650;BME280;36621;60.058;30.346;2023-01-28T17:34:23;101023.34;;;-1.59;60.80
50650;BME280;36621;60.058;30.346;2023-01-28T17:41:58;100993.69;;;-1.58;61.78
50650;BME280;36621;60.058;30.346;2023-01-28T17:49:31;100996.09;;;-1.48;62.20
50650;BME280;36621;60.058;30.346;2023-01-28T17:57:03;100979.84;;;-1.46;62.51
50650;BME280;36621;60.058;30.346;2023-01-28T18:04:37;100969.41;;;-1.41;62.48
50650;BME280;36621;60.058;30.346;2023-01-28T18:12:11;100912.00;;;-1.68;63.10
50650;BME280;36621;60.058;30.346;2023-01-28T18:19:44;100946.59;;;-1.37;63.40
50650;BME280;36621;60.058;30.346;2023-01-28T18:27:17;100925.59;;;-1.33;62.75
50650;BME280;36621;60.058;30.346;2023-01-28T18:34:51;100906.31;;;-1.44;63.58
50650;BME280;36621;60.058;30.346;2023-01-28T18:42:23;100911.94;;;-1.38;63.22
50650;BME280;36621;60.058;30.346;2023-01-28T18:49:55;100901.66;;;-1.35;63.37
50650;BME280;36621;60.058;30.346;2023-01-28T18:57:27;100879.34;;;-1.42;63.72
50650;BME280;36621;60.058;30.346;2023-01-28T19:05:00;100852.44;;;-1.55;63.17
50650;BME280;36621;60.058;30.346;2023-01-28T19:12:32;100828.66;;;-1.44;62.94
50650;BME280;36621;60.058;30.346;2023-01-28T19:20:06;100836.56;;;-1.35;62.83
50650;BME280;36621;60.058;30.346;2023-01-28T19:27:38;100831.63;;;-1.53;63.52
50650;BME280;36621;60.058;30.346;2023-01-28T19:35:11;100840.19;;;-1.43;62.75
50650;BME280;36621;60.058;30.346;2023-01-28T19:42:43;100803.34;;;-1.63;62.68
50650;BME280;36621;60.058;30.346;2023-01-28T19:50:17;100818.41;;;-1.40;62.29
50650;BME280;36621;60.058;30.346;2023-01-28T19:57:49;100798.38;;;-1.44;61.73
50650;BME280;36621;60.058;30.346;2023-01-28T20:05:22;100779.75;;;-1.52;61.86
50650;BME280;36621;60.058;30.346;2023-01-28T20:12:54;100769.53;;;-1.42;62.56
50650;BME280;36621;60.058;30.346;2023-01-28T20:20:27;100767.50;;;-1.40;62.45
50650;BME280;36621;60.058;30.346;2023-01-28T20:27:59;100765.97;;;-1.49;62.66
50650;BME280;36621;60.058;30.346;2023-01-28T20:35:32;100759.09;;;-1.37;62.96
50650;BME280;36621;60.058;30.346;2023-01-28T20:43:05;100750.25;;;-1.31;63.32
50650;BME280;36621;60.058;30.346;2023-01-28T20:50:38;100738.97;;;-1.26;64.13
50650;BME280;36621;60.058;30.346;2023-01-28T20:58:09;100739.81;;;-1.26;64.03
50650;BME280;36621;60.058;30.346;2023-01-28T21:05:44;100728.69;;;-1.23;63.41
50650;BME280;36621;60.058;30.346;2023-01-28T21:13:16;100693.38;;;-1.61;64.75
50650;BME280;36621;60.058;30.346;2023-01-28T21:20:49;100708.53;;;-1.18;64.64
50650;BME280;36621;60.058;30.346;2023-01-28T21:28:21;100687.84;;;-1.25;63.45
50650;BME280;36621;60.058;30.346;2023-01-28T21:35:54;100684.97;;;-1.23;64.31
50650;BME280;36621;60.058;30.346;2023-01-28T21:43:26;100658.66;;;-1.19;64.24
50650;BME280;36621;60.058;30.346;2023-01-28T21:51:03;100641.22;;;-1.02;64.30
50650;BME280;36621;60.058;30.346;2023-01-28T21:58:54;100644.28;;;-1.05;63.99
50650;BME280;36621;60.058;30.346;2023-01-28T22:06:44;100650.06;;;-1.01;64.61
50650;BME280;36621;60.058;30.346;2023-01-28T22:14:16;100638.59;;;-0.89;64.17
50650;BME280;36621;60.058;30.346;2023-01-28T22:21:49;100634.94;;;-0.81;63.61
50650;BME280;36621;60.058;30.346;2023-01-28T22:29:22;100637.22;;;-0.78;63.64
50650;BME280;36621;60.058;30.346;2023-01-28T22:36:55;100632.47;;;-0.76;64.14
50650;BME280;36621;60.058;30.346;2023-01-28T22:44:27;100625.03;;;-0.80;64.00
50650;BME280;36621;60.058;30.346;2023-01-28T22:51:59;100614.78;;;-0.63;63.82
50650;BME280;36621;60.058;30.346;2023-01-28T22:59:31;100585.50;;;-0.65;63.45
50650;BME280;36621;60.058;30.346;2023-01-28T23:07:03;100585.94;;;-0.55;63.65
50650;BME280;36621;60.058;30.346;2023-01-28T23:14:36;100579.50;;;-0.54;63.66
50650;BME280;36621;60.058;30.346;2023-01-28T23:22:29;100577.28;;;-0.43;63.56
50650;BME280;36621;60.058;30.346;2023-01-28T23:30:19;100585.09;;;-0.62;64.24
50650;BME280;36621;60.058;30.346;2023-01-28T23:37:56;100583.88;;;-0.46;63.78
50650;BME280;36621;60.058;30.346;2023-01-28T23:45:27;100579.56;;;-0.40;63.54
50650;BME280;36621;60.058;30.346;2023-01-28T23:53:00;100560.78;;;-0.27;63.29
